createdAt,value
2018-04-14T00:00:41.992Z,23.66
2018-04-14T00:01:42.139Z,23.77
2018-04-14T00:02:41.874Z,23.77
2018-04-14T00:03:41.839Z,23.48
2018-04-14T00:04:41.809Z,23.59
2018-04-14T00:05:41.759Z,23.63
2018-04-14T00:06:41.744Z,23.59
2018-04-14T00:07:41.868Z,23.63
2018-04-14T00:08:41.639Z,23.55
2018-04-14T00:09:41.591Z,23.58
2018-04-14T00:10:41.567Z,23.48
2018-04-14T00:11:41.503Z,23.41
2018-04-14T00:12:41.649Z,23.37
2018-04-14T00:13:41.425Z,23.41
2018-04-14T00:14:41.381Z,23.47
2018-04-14T00:15:41.359Z,23.46
2018-04-14T00:16:41.324Z,23.43
2018-04-14T00:17:41.232Z,23.46
2018-04-14T00:18:41.406Z,23.43
2018-04-14T00:19:41.158Z,23.43
2018-04-14T00:20:41.100Z,23.55
2018-04-14T00:21:41.049Z,23.58
2018-04-14T00:22:41.008Z,23.69
2018-04-14T00:23:40.982Z,23.73
2018-04-14T00:24:41.135Z,23.62
2018-04-14T00:25:40.878Z,23.54
2018-04-14T00:26:40.894Z,23.32
2018-04-14T00:27:40.809Z,23.21
2018-04-14T00:28:40.761Z,23.09
2018-04-14T00:29:40.728Z,23.08
2018-04-14T00:30:40.857Z,23.10
2018-04-14T00:31:40.638Z,23.05
2018-04-14T00:32:40.584Z,23.05
2018-04-14T00:33:40.534Z,23.15
2018-04-14T00:34:40.483Z,23.13
2018-04-14T00:35:40.454Z,23.21
2018-04-14T00:36:40.619Z,23.25
2018-04-14T00:37:40.367Z,23.31
2018-04-14T00:38:40.327Z,23.27
2018-04-14T00:39:40.312Z,23.09
2018-04-14T00:40:40.250Z,23.03
2018-04-14T00:41:40.203Z,23.09
2018-04-14T00:42:40.357Z,23.10
2018-04-14T00:43:40.088Z,23.12
2018-04-14T00:44:40.063Z,23.23
2018-04-14T00:45:40.029Z,23.37
2018-04-14T00:46:39.969Z,23.36
2018-04-14T00:47:39.923Z,23.43
2018-04-14T00:48:40.073Z,23.44
2018-04-14T00:49:39.825Z,23.50
2018-04-14T00:50:39.799Z,23.46
2018-04-14T00:51:39.778Z,23.56
2018-04-14T00:52:39.705Z,23.62
2018-04-14T00:53:39.690Z,23.41
2018-04-14T00:54:39.852Z,23.36
2018-04-14T00:55:39.575Z,23.39
2018-04-14T00:56:39.539Z,23.28
2018-04-14T00:57:39.516Z,23.31
2018-04-14T00:58:39.451Z,23.25
2018-04-14T00:59:39.416Z,23.25
2018-04-14T01:00:39.607Z,23.31
2018-04-14T01:01:39.334Z,23.23
2018-04-14T01:02:39.261Z,23.25
2018-04-14T01:03:39.243Z,23.20
2018-04-14T01:04:39.216Z,23.25
2018-04-14T01:05:39.153Z,23.12
2018-04-14T01:06:39.311Z,23.12
2018-04-14T01:07:39.101Z,23.09
2018-04-14T01:08:39.006Z,23.10
2018-04-14T01:09:38.973Z,23.10
2018-04-14T01:10:38.936Z,23.05
2018-04-14T01:11:38.886Z,23.00
2018-04-14T01:12:39.089Z,23.05
2018-04-14T01:13:38.781Z,22.96
2018-04-14T01:14:38.748Z,22.96
2018-04-14T01:15:38.718Z,23.00
2018-04-14T01:16:38.675Z,23.03
2018-04-14T01:17:38.835Z,23.17
2018-04-14T01:18:38.582Z,23.15
2018-04-14T01:19:38.537Z,23.13
2018-04-14T01:20:38.492Z,23.08
2018-04-14T01:21:38.479Z,23.15
2018-04-14T01:22:38.472Z,23.17
2018-04-14T01:23:38.575Z,23.23
2018-04-14T01:24:38.300Z,23.25
2018-04-14T01:25:38.287Z,23.18
2018-04-14T01:26:38.211Z,23.17
2018-04-14T01:27:38.213Z,23.15
2018-04-14T01:28:38.143Z,23.10
2018-04-14T01:29:38.319Z,23.09
2018-04-14T01:30:38.044Z,22.99
2018-04-14T01:31:38.022Z,22.99
2018-04-14T01:32:37.957Z,23.08
2018-04-14T01:33:37.917Z,23.06
2018-04-14T01:34:37.906Z,23.09
2018-04-14T01:35:38.068Z,23.06
2018-04-14T01:36:37.825Z,23.10
2018-04-14T01:37:37.758Z,23.02
2018-04-14T01:38:37.716Z,23.06
2018-04-14T01:39:37.668Z,22.99
2018-04-14T01:40:37.618Z,23.02
2018-04-14T01:41:37.796Z,22.98
2018-04-14T01:42:37.525Z,22.99
2018-04-14T01:43:37.522Z,23.03
2018-04-14T01:44:37.444Z,23.06
2018-04-14T01:45:37.381Z,23.06
2018-04-14T01:46:37.357Z,23.12
2018-04-14T01:47:37.542Z,23.13
2018-04-14T01:48:37.302Z,23.03
2018-04-14T01:49:37.243Z,23.10
2018-04-14T01:50:37.192Z,23.06
2018-04-14T01:51:37.165Z,23.09
2018-04-14T01:52:37.088Z,23.09
2018-04-14T01:53:37.237Z,22.99
2018-04-14T01:54:37.020Z,22.83
2018-04-14T01:55:36.989Z,22.76
2018-04-14T01:56:36.947Z,22.65
2018-04-14T01:57:36.878Z,22.72
2018-04-14T01:58:36.847Z,22.76
2018-04-14T01:59:36.982Z,22.69
2018-04-14T02:00:36.760Z,22.66
2018-04-14T02:01:36.716Z,22.81
2018-04-14T02:02:36.649Z,22.73
2018-04-14T02:03:36.625Z,22.81
2018-04-14T02:04:36.566Z,22.76
2018-04-14T02:05:36.747Z,22.75
2018-04-14T02:06:36.483Z,22.76
2018-04-14T02:07:36.470Z,22.66
2018-04-14T02:08:36.395Z,22.68
2018-04-14T02:09:36.357Z,22.78
2018-04-14T02:10:36.288Z,22.85
2018-04-14T02:11:36.479Z,22.72
2018-04-14T02:12:36.205Z,22.80
2018-04-14T02:13:36.191Z,22.78
2018-04-14T02:14:36.139Z,22.75
2018-04-14T02:15:36.102Z,22.76
2018-04-14T02:16:36.039Z,22.78
2018-04-14T02:17:36.212Z,22.76
2018-04-14T02:18:35.958Z,22.90
2018-04-14T02:19:35.926Z,22.85
2018-04-14T02:20:35.877Z,22.87
2018-04-14T02:21:35.855Z,22.88
2018-04-14T02:22:35.800Z,22.87
2018-04-14T02:23:35.940Z,22.66
2018-04-14T02:24:35.705Z,22.72
2018-04-14T02:25:35.646Z,22.73
2018-04-14T02:26:35.612Z,22.85
2018-04-14T02:27:35.579Z,22.84
2018-04-14T02:28:35.528Z,22.85
2018-04-14T02:29:35.673Z,22.90
2018-04-14T02:30:35.419Z,23.00
2018-04-14T02:31:35.389Z,22.99
2018-04-14T02:32:35.339Z,23.08
2018-04-14T02:33:35.315Z,23.05
2018-04-14T02:34:35.270Z,23.08
2018-04-14T02:35:35.432Z,23.05
2018-04-14T02:36:35.163Z,23.06
2018-04-14T02:37:35.155Z,22.99
2018-04-14T02:38:35.117Z,23.05
2018-04-14T02:39:35.048Z,23.12
2018-04-14T02:40:34.989Z,23.08
2018-04-14T02:41:35.153Z,23.06
2018-04-14T02:42:34.914Z,23.10
2018-04-14T02:43:34.862Z,23.06
2018-04-14T02:44:34.854Z,22.96
2018-04-14T02:45:34.795Z,22.93
2018-04-14T02:46:34.721Z,22.94
2018-04-14T02:47:34.875Z,22.90
2018-04-14T02:48:34.661Z,22.93
2018-04-14T02:49:34.619Z,23.00
2018-04-14T02:50:34.592Z,23.02
2018-04-14T02:51:34.516Z,22.99
2018-04-14T02:52:34.499Z,22.94
2018-04-14T02:53:34.646Z,23.03
2018-04-14T02:54:34.401Z,22.85
2018-04-14T02:55:34.367Z,22.88
2018-04-14T02:56:34.288Z,22.84
2018-04-14T02:57:34.267Z,22.88
2018-04-14T02:58:34.222Z,22.84
2018-04-14T02:59:34.382Z,22.73
2018-04-14T03:00:34.127Z,22.80
2018-04-14T03:01:34.082Z,22.85
2018-04-14T03:02:34.059Z,22.85
2018-04-14T03:03:34.012Z,22.88
2018-04-14T03:04:33.943Z,22.75
2018-04-14T03:05:34.106Z,22.91
2018-04-14T03:06:33.862Z,22.83
2018-04-14T03:07:33.825Z,22.87
2018-04-14T03:08:33.773Z,22.85
2018-04-14T03:09:33.716Z,22.84
2018-04-14T03:10:33.709Z,22.83
2018-04-14T03:11:33.858Z,22.80
2018-04-14T03:12:33.600Z,22.76
2018-04-14T03:13:33.554Z,22.72
2018-04-14T03:14:33.504Z,22.68
2018-04-14T03:15:33.474Z,22.51
2018-04-14T03:16:33.411Z,22.51
2018-04-14T03:17:33.581Z,22.63
2018-04-14T03:18:33.338Z,22.51
2018-04-14T03:19:33.290Z,22.65
2018-04-14T03:20:33.239Z,22.68
2018-04-14T03:21:33.210Z,22.72
2018-04-14T03:22:33.162Z,22.80
2018-04-14T03:23:33.345Z,22.73
2018-04-14T03:24:33.061Z,22.63
2018-04-14T03:25:33.031Z,22.76
2018-04-14T03:26:32.973Z,22.66
2018-04-14T03:27:32.959Z,22.75
2018-04-14T03:28:32.923Z,22.76
2018-04-14T03:29:33.068Z,22.75
2018-04-14T03:30:32.825Z,22.83
2018-04-14T03:31:32.754Z,22.73
2018-04-14T03:32:32.716Z,22.72
2018-04-14T03:33:32.680Z,22.81
2018-04-14T03:34:32.648Z,22.75
2018-04-14T03:35:32.793Z,22.84
2018-04-14T03:36:32.547Z,22.72
2018-04-14T03:37:32.510Z,22.73
2018-04-14T03:38:32.474Z,22.68
2018-04-14T03:39:32.419Z,22.65
2018-04-14T03:40:32.388Z,22.62
2018-04-14T03:41:32.537Z,22.70
2018-04-14T03:42:32.296Z,22.70
2018-04-14T03:43:32.249Z,22.69
2018-04-14T03:44:32.185Z,22.66
2018-04-14T03:45:32.160Z,22.65
2018-04-14T03:46:32.120Z,22.73
2018-04-14T03:47:32.280Z,22.69
2018-04-14T03:48:32.017Z,22.63
2018-04-14T03:49:31.991Z,22.65
2018-04-14T03:50:31.953Z,22.73
2018-04-14T03:51:31.918Z,22.72
2018-04-14T03:52:31.848Z,22.80
2018-04-14T03:53:31.985Z,22.73
2018-04-14T03:54:31.769Z,22.72
2018-04-14T03:55:31.719Z,22.81
2018-04-14T03:56:31.674Z,22.66
2018-04-14T03:57:31.637Z,22.66
2018-04-14T03:58:31.606Z,22.63
2018-04-14T03:59:31.743Z,22.54
2018-04-14T04:00:31.494Z,22.51
2018-04-14T04:01:31.456Z,22.54
2018-04-14T04:02:31.411Z,22.45
2018-04-14T04:03:31.361Z,22.39
2018-04-14T04:04:31.317Z,22.29
2018-04-14T04:05:31.508Z,22.28
2018-04-14T04:06:31.248Z,22.35
2018-04-14T04:07:31.200Z,22.30
2018-04-14T04:08:31.160Z,22.28
2018-04-14T04:09:31.142Z,22.29
2018-04-14T04:10:31.047Z,22.36
2018-04-14T04:11:31.230Z,22.36
2018-04-14T04:12:30.960Z,22.39
2018-04-14T04:13:30.923Z,22.41
2018-04-14T04:14:30.909Z,22.45
2018-04-14T04:15:30.853Z,22.47
2018-04-14T04:16:30.810Z,22.43
2018-04-14T04:17:30.967Z,22.32
2018-04-14T04:18:30.696Z,22.28
2018-04-14T04:19:30.692Z,22.23
2018-04-14T04:20:30.634Z,22.20
2018-04-14T04:21:30.578Z,22.22
2018-04-14T04:22:30.547Z,22.22
2018-04-14T04:23:30.685Z,22.25
2018-04-14T04:24:30.460Z,22.30
2018-04-14T04:25:30.394Z,22.30
2018-04-14T04:26:30.353Z,22.22
2018-04-14T04:27:30.331Z,22.25
2018-04-14T04:28:30.269Z,22.32
2018-04-14T04:29:30.453Z,22.32
2018-04-14T04:30:30.197Z,22.38
2018-04-14T04:31:30.140Z,22.36
2018-04-14T04:32:30.107Z,22.48
2018-04-14T04:33:30.056Z,22.51
2018-04-14T04:34:29.996Z,22.53
2018-04-14T04:35:30.204Z,22.39
2018-04-14T04:36:29.933Z,22.39
2018-04-14T04:37:29.883Z,22.43
2018-04-14T04:38:29.819Z,22.50
2018-04-14T04:39:29.771Z,22.48
2018-04-14T04:40:29.771Z,22.43
2018-04-14T04:41:29.900Z,22.32
2018-04-14T04:42:29.664Z,22.35
2018-04-14T04:43:29.621Z,22.33
2018-04-14T04:44:29.554Z,22.22
2018-04-14T04:45:29.534Z,22.35
2018-04-14T04:46:29.508Z,22.32
2018-04-14T04:47:29.656Z,22.39
2018-04-14T04:48:29.417Z,22.38
2018-04-14T04:49:29.346Z,22.38
2018-04-14T04:50:29.332Z,22.36
2018-04-14T04:51:29.249Z,22.32
2018-04-14T04:52:29.204Z,22.38
2018-04-14T04:53:29.407Z,22.33
2018-04-14T04:54:29.142Z,22.38
2018-04-14T04:55:29.088Z,22.36
2018-04-14T04:56:29.051Z,22.33
2018-04-14T04:57:29.010Z,22.44
2018-04-14T04:58:28.973Z,22.43
2018-04-14T04:59:29.113Z,22.35
2018-04-14T05:00:28.875Z,22.25
2018-04-14T05:01:28.840Z,22.29
2018-04-14T05:02:28.777Z,22.20
2018-04-14T05:03:28.762Z,22.26
2018-04-14T05:04:28.697Z,22.11
2018-04-14T05:05:28.850Z,22.02
2018-04-14T05:06:28.615Z,21.99
2018-04-14T05:07:28.569Z,21.89
2018-04-14T05:08:28.529Z,21.96
2018-04-14T05:09:28.494Z,21.99
2018-04-14T05:10:28.423Z,22.02
2018-04-14T05:11:28.598Z,22.04
2018-04-14T05:12:28.347Z,22.10
2018-04-14T05:13:28.323Z,22.15
2018-04-14T05:14:28.261Z,22.22
2018-04-14T05:15:28.220Z,22.20
2018-04-14T05:16:28.188Z,22.11
2018-04-14T05:17:28.322Z,22.18
2018-04-14T05:18:28.089Z,22.17
2018-04-14T05:19:28.061Z,22.15
2018-04-14T05:20:27.988Z,22.20
2018-04-14T05:21:27.926Z,22.02
2018-04-14T05:22:27.888Z,22.08
2018-04-14T05:23:28.064Z,22.11
2018-04-14T05:24:27.828Z,22.02
2018-04-14T05:25:27.765Z,22.08
2018-04-14T05:26:27.732Z,22.11
2018-04-14T05:27:27.682Z,22.08
2018-04-14T05:28:27.644Z,22.18
2018-04-14T05:29:27.821Z,22.26
2018-04-14T05:30:27.565Z,22.15
2018-04-14T05:31:27.532Z,22.25
2018-04-14T05:32:27.463Z,22.23
2018-04-14T05:33:27.435Z,22.29
2018-04-14T05:34:27.368Z,22.30
2018-04-14T05:35:27.543Z,22.20
2018-04-14T05:36:27.287Z,22.20
2018-04-14T05:37:27.252Z,22.22
2018-04-14T05:38:27.185Z,22.17
2018-04-14T05:39:27.146Z,22.22
2018-04-14T05:40:27.094Z,22.28
2018-04-14T05:41:27.267Z,22.15
2018-04-14T05:42:27.041Z,22.23
2018-04-14T05:43:26.973Z,22.17
2018-04-14T05:44:26.950Z,22.15
2018-04-14T05:45:26.888Z,22.23
2018-04-14T05:46:26.837Z,22.20
2018-04-14T05:47:27.023Z,22.20
2018-04-14T05:48:26.776Z,22.20
2018-04-14T05:49:26.708Z,22.18
2018-04-14T05:50:26.685Z,22.28
2018-04-14T05:51:26.646Z,22.26
2018-04-14T05:52:26.592Z,22.28
2018-04-14T05:53:26.751Z,22.33
2018-04-14T05:54:26.484Z,22.33
2018-04-14T05:55:26.445Z,22.30
2018-04-14T05:56:26.425Z,22.29
2018-04-14T05:57:26.387Z,22.35
2018-04-14T05:58:26.307Z,22.32
2018-04-14T05:59:26.477Z,22.36
2018-04-14T06:00:26.233Z,22.36
2018-04-14T06:01:26.185Z,22.20
2018-04-14T06:02:26.152Z,22.25
2018-04-14T06:03:26.103Z,22.25
2018-04-14T06:04:26.069Z,22.26
2018-04-14T06:05:26.213Z,22.22
2018-04-14T06:06:25.982Z,22.25
2018-04-14T06:07:25.921Z,22.11
2018-04-14T06:08:25.893Z,22.28
2018-04-14T06:09:25.832Z,22.32
2018-04-14T06:10:25.795Z,22.22
2018-04-14T06:11:25.952Z,22.14
2018-04-14T06:12:25.719Z,22.17
2018-04-14T06:13:25.649Z,22.13
2018-04-14T06:14:25.668Z,22.08
2018-04-14T06:15:25.582Z,22.00
2018-04-14T06:16:25.535Z,22.00
2018-04-14T06:17:25.698Z,21.99
2018-04-14T06:18:25.476Z,21.95
2018-04-14T06:19:25.408Z,21.92
2018-04-14T06:20:25.351Z,21.95
2018-04-14T06:21:25.324Z,21.91
2018-04-14T06:22:25.263Z,21.99
2018-04-14T06:23:25.425Z,21.88
2018-04-14T06:24:25.192Z,21.96
2018-04-14T06:25:25.148Z,21.83
2018-04-14T06:26:25.093Z,21.88
2018-04-14T06:27:25.031Z,21.96
2018-04-14T06:28:24.992Z,21.96
2018-04-14T06:29:25.166Z,21.91
2018-04-14T06:30:24.953Z,21.92
2018-04-14T06:31:24.884Z,21.91
2018-04-14T06:32:24.814Z,21.99
2018-04-14T06:33:24.784Z,21.95
2018-04-14T06:34:24.772Z,21.88
2018-04-14T06:35:24.889Z,21.91
2018-04-14T06:36:24.672Z,21.93
2018-04-14T06:37:24.622Z,21.80
2018-04-14T06:38:24.562Z,21.77
2018-04-14T06:39:24.531Z,21.85
2018-04-14T06:40:24.473Z,21.79
2018-04-14T06:41:24.644Z,21.76
2018-04-14T06:42:24.406Z,21.80
2018-04-14T06:43:24.356Z,21.83
2018-04-14T06:44:24.299Z,21.89
2018-04-14T06:45:24.257Z,21.77
2018-04-14T06:46:24.236Z,21.89
2018-04-14T06:47:24.365Z,21.95
2018-04-14T06:48:24.139Z,21.88
2018-04-14T06:49:24.092Z,21.92
2018-04-14T06:50:24.022Z,21.93
2018-04-14T06:51:24.007Z,21.91
2018-04-14T06:52:23.955Z,21.82
2018-04-14T06:53:24.116Z,21.88
2018-04-14T06:54:23.852Z,21.89
2018-04-14T06:55:23.815Z,21.88
2018-04-14T06:56:23.783Z,21.83
2018-04-14T06:57:23.756Z,21.89
2018-04-14T06:58:23.691Z,21.82
2018-04-14T06:59:23.832Z,21.88
2018-04-14T07:00:23.607Z,21.88
2018-04-14T07:01:23.550Z,21.92
2018-04-14T07:02:23.507Z,21.89
2018-04-14T07:03:23.488Z,21.96
2018-04-14T07:04:23.509Z,21.93
2018-04-14T07:05:23.568Z,21.91
2018-04-14T07:06:23.317Z,21.82
2018-04-14T07:07:23.319Z,21.79
2018-04-14T07:08:23.279Z,21.83
2018-04-14T07:09:23.211Z,21.79
2018-04-14T07:10:23.156Z,21.75
2018-04-14T07:11:23.303Z,21.73
2018-04-14T07:12:23.064Z,21.73
2018-04-14T07:13:23.007Z,21.77
2018-04-14T07:14:22.991Z,21.72
2018-04-14T07:15:22.936Z,21.75
2018-04-14T07:16:22.917Z,21.64
2018-04-14T07:17:23.061Z,21.75
2018-04-14T07:18:22.784Z,21.69
2018-04-14T07:19:22.770Z,21.66
2018-04-14T07:20:22.695Z,21.64
2018-04-14T07:21:22.661Z,21.58
2018-04-14T07:22:22.620Z,21.61
2018-04-14T07:23:22.783Z,21.70
2018-04-14T07:24:22.549Z,21.73
2018-04-14T07:25:22.486Z,21.70
2018-04-14T07:26:22.461Z,21.62
2018-04-14T07:27:22.404Z,21.67
2018-04-14T07:28:22.363Z,21.70
2018-04-14T07:29:22.544Z,21.70
2018-04-14T07:30:22.286Z,21.69
2018-04-14T07:31:22.229Z,21.62
2018-04-14T07:32:22.254Z,21.66
2018-04-14T07:33:22.146Z,21.66
2018-04-14T07:34:22.096Z,21.64
2018-04-14T07:35:22.253Z,21.60
2018-04-14T07:36:22.025Z,21.62
2018-04-14T07:37:21.974Z,21.67
2018-04-14T07:38:21.902Z,21.69
2018-04-14T07:39:21.861Z,21.70
2018-04-14T07:40:21.826Z,21.64
2018-04-14T07:41:22.013Z,21.69
2018-04-14T07:42:21.742Z,21.72
2018-04-14T07:43:21.726Z,21.70
2018-04-14T07:44:21.641Z,21.61
2018-04-14T07:45:21.621Z,21.75
2018-04-14T07:46:21.580Z,21.76
2018-04-14T07:47:21.716Z,21.70
2018-04-14T07:48:21.463Z,21.72
2018-04-14T07:49:21.433Z,21.70
2018-04-14T07:50:21.376Z,21.64
2018-04-14T07:51:21.373Z,21.69
2018-04-14T07:52:21.316Z,21.62
2018-04-14T07:53:21.462Z,21.61
2018-04-14T07:54:21.212Z,21.61
2018-04-14T07:55:21.158Z,21.69
2018-04-14T07:56:21.112Z,21.67
2018-04-14T07:57:21.079Z,21.62
2018-04-14T07:58:21.042Z,21.60
2018-04-14T07:59:21.194Z,21.62
2018-04-14T08:00:20.961Z,21.72
2018-04-14T08:01:20.901Z,21.66
2018-04-14T08:02:20.868Z,21.69
2018-04-14T08:03:20.816Z,21.72
2018-04-14T08:04:20.798Z,21.80
2018-04-14T08:05:20.948Z,21.76
2018-04-14T08:06:20.710Z,21.77
2018-04-14T08:07:20.682Z,21.77
2018-04-14T08:08:20.608Z,21.70
2018-04-14T08:09:20.549Z,21.73
2018-04-14T08:10:20.502Z,21.72
2018-04-14T08:11:20.659Z,21.58
2018-04-14T08:12:20.426Z,21.64
2018-04-14T08:13:20.401Z,21.60
2018-04-14T08:14:20.338Z,21.60
2018-04-14T08:15:20.287Z,21.52
2018-04-14T08:16:20.243Z,21.67
2018-04-14T08:17:20.425Z,21.67
2018-04-14T08:18:20.169Z,21.62
2018-04-14T08:19:20.092Z,21.45
2018-04-14T08:20:20.075Z,21.62
2018-04-14T08:21:20.036Z,21.57
2018-04-14T08:22:19.992Z,21.52
2018-04-14T08:23:20.132Z,21.58
2018-04-14T08:24:19.878Z,21.54
2018-04-14T08:25:19.857Z,21.66
2018-04-14T08:26:19.812Z,21.58
2018-04-14T08:27:19.772Z,21.61
2018-04-14T08:28:19.712Z,21.66
2018-04-14T08:29:19.863Z,21.60
2018-04-14T08:30:19.653Z,21.58
2018-04-14T08:31:19.593Z,21.62
2018-04-14T08:32:19.544Z,21.60
2018-04-14T08:33:19.507Z,21.55
2018-04-14T08:34:19.462Z,21.54
2018-04-14T08:35:19.617Z,21.48
2018-04-14T08:36:19.359Z,21.55
2018-04-14T08:37:19.391Z,21.60
2018-04-14T08:38:19.277Z,21.52
2018-04-14T08:39:19.242Z,21.50
2018-04-14T08:40:19.183Z,21.57
2018-04-14T08:41:19.531Z,21.52
2018-04-14T08:42:19.107Z,21.50
2018-04-14T08:43:19.078Z,21.52
2018-04-14T08:44:19.024Z,21.43
2018-04-14T08:45:18.962Z,21.39
2018-04-14T08:46:18.917Z,21.36
2018-04-14T08:47:19.158Z,21.35
2018-04-14T08:48:18.866Z,21.39
2018-04-14T08:49:18.792Z,21.42
2018-04-14T08:50:18.738Z,21.40
2018-04-14T08:51:18.693Z,21.48
2018-04-14T08:52:18.678Z,21.36
2018-04-14T08:53:18.818Z,21.33
2018-04-14T08:54:18.562Z,21.27
2018-04-14T08:55:18.528Z,21.33
2018-04-14T08:56:18.477Z,21.45
2018-04-14T08:57:18.441Z,21.46
2018-04-14T08:58:18.387Z,21.46
2018-04-14T08:59:18.548Z,21.36
2018-04-14T09:00:18.303Z,21.51
2018-04-14T09:01:18.266Z,21.42
2018-04-14T09:02:18.195Z,21.39
2018-04-14T09:03:18.166Z,21.48
2018-04-14T09:04:18.119Z,21.43
2018-04-14T09:05:18.314Z,21.51
2018-04-14T09:06:18.055Z,21.50
2018-04-14T09:07:17.999Z,21.54
2018-04-14T09:08:17.937Z,21.54
2018-04-14T09:09:17.897Z,21.61
2018-04-14T09:10:17.867Z,21.48
2018-04-14T09:11:17.998Z,21.52
2018-04-14T09:12:17.781Z,21.52
2018-04-14T09:13:17.712Z,21.54
2018-04-14T09:14:17.679Z,21.51
2018-04-14T09:15:17.628Z,21.51
2018-04-14T09:16:17.588Z,21.62
2018-04-14T09:17:17.774Z,21.50
2018-04-14T09:18:17.502Z,21.58
2018-04-14T09:19:17.458Z,21.55
2018-04-14T09:20:17.422Z,21.57
2018-04-14T09:21:17.385Z,21.60
2018-04-14T09:22:17.353Z,21.52
2018-04-14T09:23:17.483Z,21.60
2018-04-14T09:24:17.239Z,21.42
2018-04-14T09:25:17.225Z,21.55
2018-04-14T09:26:17.175Z,21.58
2018-04-14T09:27:17.107Z,21.52
2018-04-14T09:28:17.083Z,21.67
2018-04-14T09:29:17.239Z,21.54
2018-04-14T09:30:16.973Z,21.58
2018-04-14T09:31:16.929Z,21.57
2018-04-14T09:32:16.878Z,21.54
2018-04-14T09:33:16.832Z,21.52
2018-04-14T09:34:16.833Z,21.50
2018-04-14T09:35:16.965Z,21.50
2018-04-14T09:36:16.724Z,21.55
2018-04-14T09:37:16.682Z,21.52
2018-04-14T09:38:16.642Z,21.52
2018-04-14T09:39:16.577Z,21.52
2018-04-14T09:40:17.035Z,21.55
2018-04-14T09:41:16.682Z,21.54
2018-04-14T09:42:16.457Z,21.51
2018-04-14T09:43:16.421Z,21.52
2018-04-14T09:44:16.393Z,21.51
2018-04-14T09:45:16.313Z,21.54
2018-04-14T09:46:16.274Z,21.40
2018-04-14T09:47:16.444Z,21.46
2018-04-14T09:48:16.164Z,21.46
2018-04-14T09:49:16.148Z,21.40
2018-04-14T09:50:16.080Z,21.50
2018-04-14T09:51:16.057Z,21.40
2018-04-14T09:52:16.018Z,21.33
2018-04-14T09:53:16.145Z,21.40
2018-04-14T09:54:15.933Z,21.45
2018-04-14T09:55:15.859Z,21.35
2018-04-14T09:56:15.833Z,21.45
2018-04-14T09:57:15.796Z,21.50
2018-04-14T09:58:15.726Z,21.37
2018-04-14T09:59:15.898Z,21.40
2018-04-14T10:00:15.647Z,21.51
2018-04-14T10:01:15.605Z,21.50
2018-04-14T10:02:15.581Z,21.51
2018-04-14T10:03:15.503Z,21.54
2018-04-14T10:04:15.481Z,21.57
2018-04-14T10:05:15.644Z,21.58
2018-04-14T10:06:15.388Z,21.60
2018-04-14T10:07:15.344Z,21.58
2018-04-14T10:08:15.315Z,21.64
2018-04-14T10:09:15.257Z,21.72
2018-04-14T10:10:15.199Z,21.64
2018-04-14T10:11:15.371Z,21.73
2018-04-14T10:12:15.138Z,21.76
2018-04-14T10:13:15.096Z,21.79
2018-04-14T10:14:15.022Z,21.77
2018-04-14T10:15:14.991Z,21.83
2018-04-14T10:16:14.988Z,21.77
2018-04-14T10:17:15.113Z,21.77
2018-04-14T10:18:14.863Z,21.85
2018-04-14T10:19:14.830Z,21.83
2018-04-14T10:20:14.801Z,21.89
2018-04-14T10:21:14.741Z,21.89
2018-04-14T10:22:14.689Z,21.92
2018-04-14T10:23:14.857Z,21.92
2018-04-14T10:24:14.587Z,21.95
2018-04-14T10:25:14.564Z,22.06
2018-04-14T10:26:14.517Z,22.23
2018-04-14T10:27:14.475Z,22.38
2018-04-14T10:28:14.449Z,22.54
2018-04-14T10:29:14.605Z,22.69
2018-04-14T10:30:14.363Z,22.94
2018-04-14T10:31:14.340Z,23.06
2018-04-14T10:32:14.276Z,23.15
2018-04-14T10:33:14.222Z,23.44
2018-04-14T10:34:14.217Z,23.43
2018-04-14T10:35:14.346Z,23.47
2018-04-14T10:36:14.128Z,23.54
2018-04-14T10:37:14.105Z,23.58
2018-04-14T10:38:14.041Z,23.69
2018-04-14T10:39:13.995Z,23.73
2018-04-14T10:40:13.972Z,23.69
2018-04-14T10:41:14.119Z,23.69
2018-04-14T10:42:13.892Z,23.80
2018-04-14T10:43:13.862Z,23.91
2018-04-14T10:44:13.821Z,23.86
2018-04-14T10:45:13.773Z,23.88
2018-04-14T10:46:13.741Z,23.91
2018-04-14T10:47:13.912Z,24.06
2018-04-14T10:48:13.661Z,24.29
2018-04-14T10:49:13.628Z,24.45
2018-04-14T10:50:13.594Z,24.66
2018-04-14T10:51:13.556Z,24.76
2018-04-14T10:52:13.509Z,24.81
2018-04-14T10:53:14.248Z,24.76
2018-04-14T10:54:13.457Z,24.63
2018-04-14T10:55:13.408Z,24.43
2018-04-14T10:56:13.394Z,24.32
2018-04-14T10:57:13.359Z,24.20
2018-04-14T10:58:13.297Z,24.11
2018-04-14T10:59:13.466Z,24.08
2018-04-14T11:00:13.237Z,24.16
2018-04-14T11:01:13.191Z,24.26
2018-04-14T11:02:13.150Z,24.16
2018-04-14T11:03:13.132Z,24.30
2018-04-14T11:04:13.059Z,24.35
2018-04-14T11:05:13.241Z,24.29
2018-04-14T11:06:13.005Z,24.20
2018-04-14T11:07:12.953Z,24.20
2018-04-14T11:08:12.912Z,24.30
2018-04-14T11:09:12.885Z,24.23
2018-04-14T11:10:12.825Z,24.18
2018-04-14T11:11:13.002Z,24.11
2018-04-14T11:12:12.751Z,24.16
2018-04-14T11:13:12.708Z,24.13
2018-04-14T11:14:12.670Z,23.99
2018-04-14T11:15:12.657Z,23.95
2018-04-14T11:16:12.599Z,24.05
2018-04-14T11:17:12.750Z,24.06
2018-04-14T11:18:12.502Z,24.01
2018-04-14T11:19:12.477Z,24.06
2018-04-14T11:20:12.424Z,24.01
2018-04-14T11:21:12.392Z,24.01
2018-04-14T11:22:12.331Z,23.99
2018-04-14T11:23:12.496Z,24.10
2018-04-14T11:24:12.240Z,24.18
2018-04-14T11:25:12.200Z,24.33
2018-04-14T11:26:12.178Z,24.30
2018-04-14T11:27:12.124Z,24.45
2018-04-14T11:28:12.071Z,24.45
2018-04-14T11:29:12.271Z,24.55
2018-04-14T11:30:12.029Z,24.63
2018-04-14T11:31:12.029Z,24.55
2018-04-14T11:32:11.911Z,24.42
2018-04-14T11:33:11.875Z,24.45
2018-04-14T11:34:11.841Z,24.39
2018-04-14T11:35:12.002Z,24.38
2018-04-14T11:36:11.752Z,24.47
2018-04-14T11:37:11.714Z,24.54
2018-04-14T11:38:11.663Z,24.57
2018-04-14T11:39:11.614Z,24.55
2018-04-14T11:40:11.603Z,24.61
2018-04-14T11:41:11.747Z,24.63
2018-04-14T11:42:11.506Z,24.58
2018-04-14T11:43:11.467Z,24.60
2018-04-14T11:44:11.414Z,24.61
2018-04-14T11:45:11.384Z,24.60
2018-04-14T11:46:11.338Z,24.57
2018-04-14T11:47:11.496Z,24.65
2018-04-14T11:48:11.243Z,24.73
2018-04-14T11:49:11.210Z,24.78
2018-04-14T11:50:11.154Z,24.73
2018-04-14T11:51:11.139Z,24.68
2018-04-14T11:52:11.092Z,24.63
2018-04-14T11:53:11.229Z,24.48
2018-04-14T11:54:11.012Z,24.55
2018-04-14T11:55:10.978Z,24.65
2018-04-14T11:56:10.917Z,24.65
2018-04-14T11:57:10.876Z,24.65
2018-04-14T11:58:10.834Z,24.51
2018-04-14T11:59:11.009Z,24.50
2018-04-14T12:00:10.763Z,24.43
2018-04-14T12:01:10.700Z,24.51
2018-04-14T12:02:10.697Z,24.58
2018-04-14T12:03:10.617Z,24.60
2018-04-14T12:04:10.584Z,24.65
2018-04-14T12:05:10.755Z,24.54
2018-04-14T12:06:10.525Z,24.54
2018-04-14T12:07:10.481Z,24.69
2018-04-14T12:08:10.432Z,24.60
2018-04-14T12:09:10.391Z,24.57
2018-04-14T12:10:10.569Z,24.58
2018-04-14T12:11:10.287Z,24.61
2018-04-14T12:12:10.260Z,24.57
2018-04-14T12:13:10.198Z,24.60
2018-04-14T12:14:10.178Z,24.54
2018-04-14T12:15:10.123Z,24.54
2018-04-14T12:16:10.271Z,24.47
2018-04-14T12:17:10.030Z,24.57
2018-04-14T12:18:10.001Z,24.76
2018-04-14T12:19:09.951Z,24.66
2018-04-14T12:20:09.919Z,24.69
2018-04-14T12:21:09.871Z,24.58
2018-04-14T12:22:10.017Z,24.81
2018-04-14T12:23:09.805Z,24.73
2018-04-14T12:24:09.739Z,24.69
2018-04-14T12:25:09.701Z,24.70
2018-04-14T12:26:09.659Z,24.63
2018-04-14T12:27:09.628Z,24.86
2018-04-14T12:28:09.786Z,24.84
2018-04-14T12:29:09.570Z,24.88
2018-04-14T12:30:09.517Z,24.95
2018-04-14T12:31:09.476Z,24.96
2018-04-14T12:32:09.421Z,25.01
2018-04-14T12:33:09.381Z,24.96
2018-04-14T12:34:09.526Z,25.03
2018-04-14T12:35:09.290Z,24.96
2018-04-14T12:36:09.253Z,25.07
2018-04-14T12:37:09.220Z,25.04
2018-04-14T12:38:09.163Z,25.08
2018-04-14T12:39:09.103Z,24.89
2018-04-14T12:40:09.278Z,24.95
2018-04-14T12:41:09.058Z,25.04
2018-04-14T12:42:09.001Z,24.99
2018-04-14T12:43:08.955Z,25.03
2018-04-14T12:44:08.898Z,24.91
2018-04-14T12:45:08.873Z,25.10
2018-04-14T12:46:09.010Z,25.07
2018-04-14T12:47:08.787Z,25.03
2018-04-14T12:48:08.746Z,24.99
2018-04-14T12:49:08.723Z,25.07
2018-04-14T12:50:08.649Z,25.03
2018-04-14T12:51:08.613Z,25.01
2018-04-14T12:52:08.759Z,25.07